Time;durP1;ratioP1;P1;durP2;ratioP2;P2;SDS_P1;SDS_P2;PMS_P1;PMS_P2;Temp;Humidity;BMP_temperature;BMP_pressure;BME280_temperature;BME280_humidity;BME280_pressure;Samples;Min_cycle;Max_cycle;Signal;HPM_P1;HPM_P2
2022/01/02 00:01:30;;;;;;;15.40;10.13;;;;;;;9.87;100.00;100733.22;5062996;28;20285;-76
2022/01/02 00:04:03;;;;;;;13.00;8.37;;;;;;;9.90;100.00;100736.78;5069919;28;20276;-75
2022/01/02 00:06:34;;;;;;;14.57;8.93;;;;;;;9.95;100.00;100724.81;5071727;28;20599;-77
2022/01/02 00:09:06;;;;;;;12.13;8.93;;;;;;;9.88;100.00;100727.22;5055369;28;20678;-75
2022/01/02 00:11:34;;;;;;;12.70;8.17;;;;;;;9.88;100.00;100737.59;5061879;28;20219;-76
2022/01/02 00:14:07;;;;;;;14.17;9.33;;;;;;;9.92;100.00;100739.38;5053549;28;20200;-77
2022/01/02 00:16:35;;;;;;;11.13;8.27;;;;;;;9.90;100.00;100728.13;5053106;28;20195;-76
2022/01/02 00:19:08;;;;;;;12.33;8.30;;;;;;;10.01;100.00;100731.00;5052573;28;20206;-76
2022/01/02 00:21:44;;;;;;;11.87;8.40;;;;;;;9.49;100.00;100662.22;5054034;28;20318;-77
2022/01/02 00:24:14;;;;;;;11.73;8.53;;;;;;;10.00;100.00;100737.91;5057150;28;20668;-76
2022/01/02 00:26:43;;;;;;;9.33;7.23;;;;;;;9.95;100.00;100737.75;5071009;28;20678;-76
2022/01/02 00:29:11;;;;;;;12.10;7.13;;;;;;;9.86;100.00;100759.94;5071269;28;20209;-77
2022/01/02 00:31:39;;;;;;;11.25;8.88;;;;;;;9.81;100.00;100753.78;5069735;28;20737;-77
2022/01/02 00:34:06;;;;;;;11.17;8.33;;;;;;;9.86;100.00;100759.94;5069887;28;20206;-77
2022/01/02 00:36:34;;;;;;;8.13;5.50;;;;;;;9.70;100.00;100721.50;5070719;28;20271;-77
2022/01/02 00:39:03;;;;;;;13.10;8.00;;;;;;;9.91;100.00;100759.25;5055138;28;20210;-77
2022/01/02 00:41:35;;;;;;;12.13;8.50;;;;;;;9.88;100.00;100756.56;5061284;28;20198;-77
2022/01/02 00:44:08;;;;;;;11.47;8.40;;;;;;;9.91;100.00;100773.94;5061907;28;20674;-77
2022/01/02 00:46:39;;;;;;;12.47;6.80;;;;;;;9.91;100.00;100767.03;5051650;28;20198;-78
2022/01/02 00:49:07;;;;;;;11.43;8.43;;;;;;;9.85;100.00;100766.84;5052113;28;20196;-77
2022/01/02 00:51:46;;;;;;;12.23;8.43;;;;;;;9.88;100.00;100771.25;5064246;28;20222;-76
2022/01/02 00:54:17;;;;;;;12.90;8.83;;;;;;;9.80;100.00;100771.03;5074783;28;20256;-76
2022/01/02 00:56:46;;;;;;;10.13;7.77;;;;;;;9.84;100.00;100766.81;5065750;28;20691;-77
2022/01/02 00:59:28;;;;;;;11.93;8.00;;;;;;;9.65;100.00;100738.63;5057861;28;20199;-77
2022/01/02 01:02:02;;;;;;;11.77;8.73;;;;;;;9.33;100.00;100688.50;5062471;28;20206;-77
2022/01/02 01:04:31;;;;;;;14.13;9.10;;;;;;;9.83;100.00;100768.53;5055221;28;20202;-77
2022/01/02 01:07:02;;;;;;;12.60;8.87;;;;;;;9.70;100.00;100756.03;5055514;28;20291;-77
2022/01/02 01:09:32;;;;;;;15.33;8.53;;;;;;;9.77;100.00;100755.41;5058238;28;20206;-77
2022/01/02 01:12:00;;;;;;;15.97;9.20;;;;;;;9.85;100.00;100747.81;5062153;28;20206;-76
2022/01/02 01:14:26;;;;;;;12.17;7.93;;;;;;;9.83;100.00;100744.34;5055292;28;20202;-76
2022/01/02 01:16:54;;;;;;;13.30;9.33;;;;;;;9.80;100.00;100747.72;5065309;28;20199;-77
2022/01/02 01:19:22;;;;;;;13.53;9.47;;;;;;;9.88;100.00;100737.59;5073164;28;20226;-77
2022/01/02 01:21:49;;;;;;;15.50;9.30;;;;;;;9.95;100.00;100737.75;5060839;28;20227;-76
2022/01/02 01:24:15;;;;;;;15.27;9.97;;;;;;;9.82;100.00;100732.19;5055101;28;20230;-77
2022/01/02 01:26:46;;;;;;;22.83;11.60;;;;;;;9.86;100.00;100741.81;5058705;28;20199;-77
2022/01/02 01:29:13;;;;;;;15.97;10.77;;;;;;;9.84;100.00;100740.91;5074432;28;20201;-76
2022/01/02 01:31:40;;;;;;;12.63;9.30;;;;;;;9.57;100.00;100691.78;5070031;28;20218;-77
2022/01/02 01:34:07;;;;;;;14.80;9.00;;;;;;;9.97;100.00;100737.81;5054952;28;20206;-78
2022/01/02 01:36:33;;;;;;;14.47;9.10;;;;;;;9.86;100.00;100754.78;5054565;28;20206;-76
2022/01/02 01:39:00;;;;;;;7.47;5.57;;;;;;;9.95;100.00;100753.31;5069501;28;20265;-77
2022/01/02 01:41:32;;;;;;;13.30;8.70;;;;;;;9.99;100.00;100756.84;5066245;28;20196;-77
2022/01/02 01:44:21;;;;;;;12.07;9.17;;;;;;;9.93;100.00;100767.06;5066599;28;20209;-77
2022/01/02 01:46:51;;;;;;;13.53;8.60;;;;;;;9.89;100.00;100752.25;5074458;28;21412;-76
2022/01/02 01:49:20;;;;;;;13.47;10.50;;;;;;;9.95;100.00;100749.88;5059916;28;20701;-76
2022/01/02 01:51:48;;;;;;;12.90;7.90;;;;;;;9.89;100.00;100749.66;5062972;28;20219;-76
2022/01/02 01:54:15;;;;;;;16.97;10.50;;;;;;;9.85;100.00;100745.25;5059466;28;20692;-76
2022/01/02 01:56:42;;;;;;;17.07;10.07;;;;;;;9.84;100.00;100746.09;5070593;28;20211;-77
2022/01/02 01:59:11;;;;;;;15.23;8.60;;;;;;;9.84;100.00;100746.09;5064887;28;20199;-76
2022/01/02 02:01:37;;;;;;;14.03;10.63;;;;;;;9.89;100.00;100760.91;5064354;28;20206;-78
2022/01/02 02:04:04;;;;;;;15.33;10.53;;;;;;;9.78;100.00;100756.25;5054154;28;20203;-76
2022/01/02 02:06:33;;;;;;;16.27;10.17;;;;;;;9.88;100.00;100758.31;5065960;28;20209;-78
2022/01/02 02:09:02;;;;;;;15.87;11.10;;;;;;;9.81;100.00;100758.97;5073505;28;20198;-77
2022/01/02 02:11:29;;;;;;;10.77;8.60;;;;;;;9.44;100.00;100692.28;5066598;28;20702;-77
2022/01/02 02:13:57;;;;;;;20.40;11.60;;;;;;;9.75;100.00;100761.34;5054332;28;20191;-77
2022/01/02 02:16:27;;;;;;;14.83;11.43;;;;;;;9.52;100.00;100700.28;5061122;28;20198;-76
2022/01/02 02:18:54;;;;;;;12.07;8.37;;;;;;;9.81;100.00;100766.72;5057680;28;20721;-77
2022/01/02 02:21:32;;;;;;;19.77;11.47;;;;;;;9.82;100.00;100766.75;5053015;28;20308;-76
2022/01/02 02:24:00;;;;;;;22.67;12.40;;;;;;;9.84;100.00;100775.47;5053680;28;20662;-77
2022/01/02 02:26:27;;;;;;;18.80;11.93;;;;;;;9.75;100.00;100777.78;5054045;28;20207;-76
2022/01/02 02:28:53;;;;;;;16.33;11.07;;;;;;;9.74;100.00;100775.13;5069094;28;20207;-76
2022/01/02 02:31:20;;;;;;;17.87;11.63;;;;;;;9.70;100.00;100776.75;5055807;28;20219;-76
2022/01/02 02:33:47;;;;;;;15.33;10.47;;;;;;;9.77;100.00;100775.25;5067746;28;20195;-76
2022/01/02 02:36:14;;;;;;;16.57;10.83;;;;;;;9.80;100.00;100776.22;5071706;28;20199;-79
2022/01/02 02:38:43;;;;;;;17.43;12.57;;;;;;;9.68;100.00;100780.13;5061822;28;20226;-76
2022/01/02 02:41:10;;;;;;;15.57;11.93;;;;;;;9.65;100.00;100777.47;5066574;28;20199;-76
2022/01/02 02:43:44;;;;;;;16.60;12.13;;;;;;;9.64;100.00;100773.97;5064068;28;20203;-77
2022/01/02 02:49:00;;;;;;;14.73;9.83;;;;;;;9.72;100.00;100776.81;5068864;28;20205;-76
2022/01/02 02:51:33;;;;;;;16.93;11.83;;;;;;;9.63;100.00;100779.13;5053162;28;20219;-75
2022/01/02 02:54:02;;;;;;;16.10;11.73;;;;;;;9.44;100.00;100752.69;5067154;28;20201;-77
2022/01/02 02:56:40;;;;;;;17.27;11.67;;;;;;;9.69;100.00;100779.31;5062932;28;20210;-76
2022/01/02 02:59:07;;;;;;;14.07;10.00;;;;;;;9.32;100.00;100729.03;5056475;28;20669;-76
2022/01/02 03:01:34;;;;;;;18.27;12.50;;;;;;;9.64;100.00;100786.03;5067512;28;20217;-76
2022/01/02 03:04:01;;;;;;;18.03;10.60;;;;;;;9.66;100.00;100781.81;5072308;28;20202;-77
2022/01/02 03:06:28;;;;;;;14.23;11.23;;;;;;;9.48;100.00;100768.31;5072949;28;20225;-76
2022/01/02 03:08:59;;;;;;;17.17;11.77;;;;;;;9.56;100.00;100785.81;5057918;28;20206;-76
2022/01/02 03:11:29;;;;;;;14.37;9.47;;;;;;;9.64;100.00;100793.81;5054213;28;20226;-76
2022/01/02 03:13:56;;;;;;;13.20;10.30;;;;;;;9.62;100.00;100790.31;5067824;28;20260;-77
2022/01/02 03:16:23;;;;;;;15.70;11.33;;;;;;;9.57;100.00;100786.69;5058597;28;20207;-78
2022/01/02 03:18:50;;;;;;;15.80;11.00;;;;;;;9.52;100.00;100784.00;5052724;28;20199;-76
2022/01/02 03:21:17;;;;;;;14.80;10.27;;;;;;;9.56;100.00;100801.34;5052332;28;20736;-77
2022/01/02 03:23:44;;;;;;;14.93;10.60;;;;;;;9.50;100.00;100801.16;5053119;28;20202;-77
2022/01/02 03:26:11;;;;;;;20.83;11.93;;;;;;;9.46;100.00;100799.31;5052626;28;20204;-76
2022/01/02 03:28:39;;;;;;;15.93;10.30;;;;;;;9.35;100.00;100773.09;5064129;28;20287;-76
2022/01/02 03:31:07;;;;;;;21.13;13.90;;;;;;;9.48;100.00;100802.84;5070343;28;20222;-77
2022/01/02 03:33:34;;;;;;;14.47;10.87;;;;;;;9.57;100.00;100807.41;5057068;28;20200;-76
2022/01/02 03:36:01;;;;;;;17.37;13.23;;;;;;;9.43;100.00;100800.09;5066872;28;20202;-76
2022/01/02 03:38:28;;;;;;;18.67;12.77;;;;;;;9.36;100.00;100781.75;5062250;28;20195;-77
2022/01/02 03:40:55;;;;;;;18.47;13.33;;;;;;;9.37;100.00;100804.22;5052152;28;20191;-77
2022/01/02 03:43:22;;;;;;;16.70;11.93;;;;;;;9.35;100.00;100791.22;5059896;28;20206;-78
2022/01/02 03:45:51;;;;;;;12.70;9.63;;;;;;;9.52;100.00;100798.63;5071889;28;20206;-77
2022/01/02 03:48:17;;;;;;;17.17;12.73;;;;;;;9.41;100.00;100796.59;5063403;28;20207;-77
2022/01/02 03:50:44;;;;;;;15.87;11.27;;;;;;;9.15;100.00;100753.50;5067710;28;20237;-77
2022/01/02 03:53:11;;;;;;;19.77;13.40;;;;;;;9.42;100.00;100803.50;5057188;28;20281;-77
2022/01/02 03:55:39;;;;;;;15.60;12.13;;;;;;;9.21;100.00;100766.63;5053132;28;20211;-76
2022/01/02 03:58:07;;;;;;;19.70;13.57;;;;;;;9.33;100.00;100802.38;5053509;28;20206;-76
2022/01/02 04:00:33;;;;;;;18.17;13.37;;;;;;;9.27;100.00;100791.81;5054225;28;20199;-77
2022/01/02 04:03:02;;;;;;;19.03;11.93;;;;;;;9.43;100.00;100810.47;5070648;28;20575;-76
2022/01/02 04:05:28;;;;;;;19.87;12.57;;;;;;;9.38;100.00;100809.41;5053052;28;20212;-76
2022/01/02 04:07:55;;;;;;;18.90;13.00;;;;;;;9.29;100.00;100806.56;5052818;28;20199;-76
2022/01/02 04:10:22;;;;;;;17.50;12.70;;;;;;;9.40;100.00;100818.13;5053114;28;20202;-77
2022/01/02 04:12:49;;;;;;;23.07;14.73;;;;;;;8.97;100.00;100760.69;5056067;28;20697;-76
2022/01/02 04:15:16;;;;;;;20.30;13.17;;;;;;;9.21;100.00;100801.97;5052794;28;20210;-77
2022/01/02 04:17:43;;;;;;;19.43;13.40;;;;;;;8.70;100.00;100715.84;5055759;28;20195;-76
2022/01/02 04:20:14;;;;;;;23.60;12.20;;;;;;;9.40;100.00;100819.84;5064947;28;20215;-77
2022/01/02 04:22:42;;;;;;;18.63;12.63;;;;;;;9.38;100.00;100814.59;5068231;28;20241;-76
2022/01/02 04:25:10;;;;;;;19.60;12.77;;;;;;;9.40;100.00;100825.91;5071115;28;20199;-77
2022/01/02 04:27:37;;;;;;;20.87;13.37;;;;;;;9.33;100.00;100821.34;5064397;28;20206;-75
2022/01/02 04:30:06;;;;;;;11.33;7.57;;;;;;;9.45;100.00;100824.31;5068835;28;20571;-76
2022/01/02 04:32:33;;;;;;;13.23;8.30;;;;;;;9.42;100.00;100825.94;5051371;28;20660;-75
2022/01/02 04:34:59;;;;;;;16.00;11.50;;;;;;;9.34;100.00;100815.38;5051593;28;20206;-77
2022/01/02 04:37:28;;;;;;;17.77;12.00;;;;;;;9.44;100.00;100824.28;5051819;28;20279;-76
2022/01/02 04:39:54;;;;;;;18.47;12.97;;;;;;;9.33;100.00;100823.94;5051568;28;20207;-77
2022/01/02 04:42:21;;;;;;;17.37;11.27;;;;;;;9.32;100.00;100824.78;5051470;28;20670;-76
2022/01/02 04:44:48;;;;;;;23.93;14.70;;;;;;;9.26;100.00;100834.94;5052074;28;20199;-76
2022/01/02 04:47:15;;;;;;;20.20;13.13;;;;;;;9.23;100.00;100837.44;5051905;28;20199;-76
2022/01/02 04:49:41;;;;;;;19.93;13.57;;;;;;;9.29;100.00;100837.63;5051536;28;20208;-76
2022/01/02 04:52:08;;;;;;;20.40;13.50;;;;;;;9.29;100.00;100834.13;5050929;28;20641;-76
2022/01/02 04:54:36;;;;;;;20.83;12.50;;;;;;;9.33;100.00;100828.25;5051811;28;20203;-76
2022/01/02 04:57:03;;;;;;;19.53;13.67;;;;;;;9.22;100.00;100840.84;5051772;28;20595;-75
2022/01/02 04:59:30;;;;;;;16.97;12.17;;;;;;;9.25;100.00;100840.94;5051377;28;20718;-76
2022/01/02 05:01:57;;;;;;;17.67;12.13;;;;;;;9.24;100.00;100839.16;5051633;28;20663;-76
2022/01/02 05:04:24;;;;;;;13.90;10.13;;;;;;;8.98;100.00;100777.97;5055104;28;20202;-77
2022/01/02 05:06:51;;;;;;;16.07;12.03;;;;;;;9.25;100.00;100843.50;5071291;28;20591;-76
2022/01/02 05:09:17;;;;;;;22.93;12.80;;;;;;;9.22;100.00;100851.19;5057113;28;20206;-76
2022/01/02 05:11:45;;;;;;;15.70;11.40;;;;;;;9.30;100.00;100843.66;5061251;28;20233;-76
2022/01/02 05:14:12;;;;;;;19.43;11.70;;;;;;;9.25;100.00;100820.22;5068319;28;20209;-75
2022/01/02 05:16:39;;;;;;;17.60;12.63;;;;;;;9.32;100.00;100855.81;5059085;28;20743;-76
2022/01/02 05:19:06;;;;;;;14.77;10.57;;;;;;;9.36;100.00;100843.84;5062228;28;20195;-76
2022/01/02 05:21:33;;;;;;;16.00;12.27;;;;;;;9.36;100.00;100849.91;5050281;28;20230;-76
2022/01/02 05:23:59;;;;;;;17.13;10.87;;;;;;;9.35;100.00;100866.28;5051397;28;20249;-76
2022/01/02 05:26:26;;;;;;;17.37;11.57;;;;;;;9.19;100.00;100845.03;5051329;28;20200;-75
2022/01/02 05:28:54;;;;;;;15.93;10.70;;;;;;;9.29;100.00;100868.66;5057895;28;20281;-76
2022/01/02 05:31:21;;;;;;;15.13;10.20;;;;;;;9.29;100.00;100873.84;5069198;28;20671;-75
2022/01/02 05:33:48;;;;;;;12.37;8.17;;;;;;;9.30;100.00;100875.59;5050434;28;20211;-77
2022/01/02 05:36:14;;;;;;;14.97;10.77;;;;;;;9.24;100.00;100853.84;5054013;28;20207;-75
2022/01/02 05:38:41;;;;;;;16.87;12.63;;;;;;;9.09;100.00;100836.09;5059441;28;20252;-77
2022/01/02 05:41:08;;;;;;;16.37;10.80;;;;;;;9.30;100.00;100874.72;5068067;28;20221;-76
2022/01/02 05:43:35;;;;;;;19.53;12.40;;;;;;;9.35;100.00;100879.22;5062498;28;20199;-76
2022/01/02 05:46:05;;;;;;;17.63;10.90;;;;;;;9.40;100.00;100882.84;5067788;28;20199;-76
2022/01/02 05:48:33;;;;;;;15.07;9.97;;;;;;;9.03;100.00;100809.13;5070682;28;20192;-76
2022/01/02 05:51:00;;;;;;;18.10;11.20;;;;;;;9.33;100.00;100874.81;5067353;28;20194;-79
2022/01/02 05:53:29;;;;;;;17.93;11.90;;;;;;;9.41;100.00;100887.19;5056471;28;20286;-78
2022/01/02 05:55:56;;;;;;;14.80;10.07;;;;;;;9.49;100.00;100883.97;5074021;28;20206;-75
2022/01/02 05:58:23;;;;;;;14.27;9.67;;;;;;;9.42;100.00;100864.75;5071433;28;20199;-76
2022/01/02 06:00:50;;;;;;;12.47;7.07;;;;;;;9.45;100.00;100870.91;5055541;28;20297;-76
2022/01/02 06:03:18;;;;;;;20.30;11.07;;;;;;;9.44;100.00;100879.53;5074459;28;20596;-75
2022/01/02 06:05:45;;;;;;;11.17;8.17;;;;;;;9.44;100.00;100882.13;5064829;28;20206;-77
2022/01/02 06:08:11;;;;;;;16.27;11.67;;;;;;;9.53;100.00;100903.91;5070444;28;20209;-75
2022/01/02 06:10:38;;;;;;;17.17;10.87;;;;;;;9.58;100.00;100903.25;5064548;28;20199;-75
2022/01/02 06:13:05;;;;;;;20.73;13.10;;;;;;;9.54;100.00;100910.88;5054625;28;20223;-76
2022/01/02 06:15:32;;;;;;;21.13;11.47;;;;;;;9.24;100.00;100848.66;5054710;28;20199;-76
2022/01/02 06:17:59;;;;;;;17.97;12.43;;;;;;;9.60;100.00;100913.63;5071330;28;20204;-75
2022/01/02 06:20:28;;;;;;;14.63;9.53;;;;;;;9.67;100.00;100923.38;5055366;28;20220;-76
2022/01/02 06:22:55;;;;;;;12.10;8.77;;;;;;;9.66;100.00;100906.97;5073206;28;20198;-77
2022/01/02 06:25:22;;;;;;;12.87;9.73;;;;;;;9.29;100.00;100863.50;5070309;28;20252;-77
2022/01/02 06:27:49;;;;;;;16.07;10.33;;;;;;;9.66;100.00;100924.22;5054484;28;20207;-78
2022/01/02 06:30:16;;;;;;;33.73;20.03;;;;;;;9.11;100.00;100843.88;5056746;28;20771;-79
2022/01/02 06:32:43;;;;;;;37.30;17.43;;;;;;;9.64;100.00;100926.75;5054402;28;20223;-76
2022/01/02 06:35:10;;;;;;;34.87;19.53;;;;;;;9.64;100.00;100936.22;5054804;28;20219;-76
2022/01/02 06:37:38;;;;;;;160.13;60.70;;;;;;;9.74;100.00;100946.91;5054359;28;20207;-77
2022/01/02 06:40:06;;;;;;;61.83;32.50;;;;;;;9.53;100.00;100928.09;5063558;28;20211;-77
2022/01/02 06:42:33;;;;;;;74.30;38.43;;;;;;;9.69;100.00;100945.03;5048927;28;20199;-76
2022/01/02 06:45:00;;;;;;;41.27;25.00;;;;;;;9.76;100.00;100959.94;5061630;28;20202;-73
2022/01/02 06:47:27;;;;;;;39.30;21.33;;;;;;;9.79;100.00;100958.31;5056410;28;20199;-74
2022/01/02 06:49:53;;;;;;;49.27;29.10;;;;;;;9.72;100.00;100966.72;5055084;28;20196;-75
2022/01/02 06:52:20;;;;;;;23.37;16.17;;;;;;;9.79;100.00;100975.56;5066582;28;20234;-74
2022/01/02 06:54:52;;;;;;;126.17;53.53;;;;;;;9.86;100.00;100982.69;5052584;28;20199;-74
2022/01/02 06:57:20;;;;;;;119.10;49.40;;;;;;;9.84;100.00;100974.00;5040930;28;20294;-75
2022/01/02 06:59:46;;;;;;;139.80;52.83;;;;;;;9.85;100.00;100991.28;5033182;28;20208;-75
2022/01/02 07:02:13;;;;;;;247.03;87.20;;;;;;;9.85;100.00;100986.09;5037462;28;20211;-75
2022/01/02 07:04:40;;;;;;;25.30;15.23;;;;;;;9.96;100.00;100984.75;5037486;28;20200;-75
2022/01/02 07:07:07;;;;;;;40.00;22.03;;;;;;;9.86;100.00;100993.06;5053558;28;20225;-75
2022/01/02 07:09:34;;;;;;;32.77;18.87;;;;;;;9.92;100.00;100994.13;5053203;28;20199;-74
2022/01/02 07:12:03;;;;;;;30.93;20.40;;;;;;;10.00;100.00;100996.97;5048714;28;20219;-74
2022/01/02 07:14:30;;;;;;;29.43;19.70;;;;;;;9.93;100.00;100984.66;5052449;28;20204;-73
2022/01/02 07:16:58;;;;;;;27.43;19.23;;;;;;;10.04;100.00;101004.00;5040567;28;20204;-75
2022/01/02 07:19:25;;;;;;;15.10;9.40;;;;;;;9.87;100.00;100936.13;5052308;28;20272;-75
2022/01/02 07:21:52;;;;;;;25.33;17.43;;;;;;;10.19;100.00;101006.25;5051560;28;20235;-74
2022/01/02 07:24:20;;;;;;;61.97;29.57;;;;;;;8.93;100.00;100792.44;5069891;28;20690;-77
2022/01/02 07:26:47;;;;;;;29.63;17.73;;;;;;;10.15;100.00;100997.50;5058043;28;20213;-75
2022/01/02 07:29:15;;;;;;;26.13;19.83;;;;;;;10.16;100.00;100999.25;5070955;28;20221;-76
2022/01/02 07:31:42;;;;;;;42.30;29.17;;;;;;;10.28;100.00;101012.59;5069905;28;20281;-77
2022/01/02 07:34:09;;;;;;;60.13;34.70;;;;;;;10.35;100.00;101011.94;5071920;28;20241;-73
2022/01/02 07:36:39;;;;;;;70.57;35.67;;;;;;;10.29;100.00;101006.56;5070024;28;20289;-76
2022/01/02 07:39:06;;;;;;;138.70;59.50;;;;;;;10.29;100.00;101006.56;5056318;28;20199;-77
2022/01/02 07:41:33;;;;;;;142.07;54.13;;;;;;;10.42;100.00;101005.22;5058219;28;20204;-76
2022/01/02 07:44:03;;;;;;;303.27;115.23;;;;;;;10.45;100.00;101002.75;5055127;28;20199;-76
2022/01/02 07:46:31;;;;;;;210.33;67.63;;;;;;;10.42;100.00;101007.81;5055399;28;20245;-75
2022/01/02 07:48:58;;;;;;;280.17;90.93;;;;;;;10.49;100.00;100998.53;5058229;28;20658;-73
2022/01/02 07:51:25;;;;;;;62.90;24.50;;;;;;;10.52;100.00;101004.69;5062434;28;20592;-76
2022/01/02 07:53:52;;;;;;;211.73;65.17;;;;;;;10.54;100.00;101010.78;5067062;28;20221;-76
2022/01/02 07:56:19;;;;;;;256.30;79.33;;;;;;;10.64;100.00;101009.34;5069629;28;20202;-76
2022/01/02 07:58:45;;;;;;;172.52;56.40;;;;;;;10.49;100.00;100989.00;5060572;28;20257;-78
2022/01/02 08:01:12;;;;;;;133.85;50.00;;;;;;;10.26;100.00;100938.22;5062484;28;20206;-76
2022/01/02 08:03:40;;;;;;;149.68;54.72;;;;;;;10.68;100.00;101013.78;5053241;28;20207;-77
2022/01/02 08:06:07;;;;;;;152.88;57.45;;;;;;;10.84;100.00;101018.59;5035424;28;20575;-76
2022/01/02 08:08:34;;;;;;;134.60;51.83;;;;;;;10.80;100.00;101030.59;5034354;28;20222;-74
2022/01/02 08:11:01;;;;;;;102.20;40.30;;;;;;;10.85;100.00;101030.72;5048399;28;20278;-73
2022/01/02 08:13:27;;;;;;;117.93;39.97;;;;;;;10.93;100.00;101031.81;5051330;28;20276;-73
2022/01/02 08:15:54;;;;;;;210.88;64.35;;;;;;;10.90;100.00;101039.53;5052027;28;20321;-73
2022/01/02 08:18:21;;;;;;;164.68;51.53;;;;;;;10.98;100.00;101027.66;5052521;28;20253;-76
2022/01/02 08:20:49;;;;;;;135.90;41.65;;;;;;;10.91;100.00;101034.38;5051302;28;20691;-75
2022/01/02 08:23:16;;;;;;;54.97;21.15;;;;;;;10.91;100.00;101023.13;5050761;28;20199;-73
2022/01/02 08:25:43;;;;;;;46.67;16.85;;;;;;;11.07;100.00;101042.59;5051933;28;20210;-73
2022/01/02 08:28:10;;;;;;;62.88;25.15;;;;;;;11.08;100.00;101042.66;5053067;28;20196;-75
2022/01/02 08:30:37;;;;;;;46.35;16.88;;;;;;;11.17;100.00;101042.91;5066136;28;20604;-75
2022/01/02 08:33:04;;;;;;;246.55;67.43;;;;;;;11.18;100.00;101043.78;5046409;28;20625;-74
2022/01/02 08:35:30;;;;;;;146.80;41.80;;;;;;;11.27;100.00;101050.09;5045330;28;20195;-74
2022/01/02 08:37:58;;;;;;;78.75;28.58;;;;;;;11.27;100.00;101047.50;5044314;28;20612;-74
2022/01/02 08:40:25;;;;;;;217.73;63.88;;;;;;;11.30;100.00;101052.81;5036198;28;20216;-75
2022/01/02 08:42:52;;;;;;;42.70;17.90;;;;;;;11.06;100.00;100995.00;5031449;28;20207;-75
2022/01/02 08:45:19;;;;;;;24.92;13.55;;;;;;;11.32;100.00;101051.09;5043028;28;20202;-75
2022/01/02 08:47:45;;;;;;;63.15;24.55;;;;;;;11.47;100.00;101044.56;5051348;28;20678;-75
2022/01/02 08:50:12;;;;;;;71.32;29.00;;;;;;;11.51;100.00;101042.09;5051329;28;20203;-74
2022/01/02 08:52:39;;;;;;;107.03;38.75;;;;;;;11.53;100.00;101060.31;5050551;28;20219;-75
2022/01/02 08:55:08;;;;;;;78.20;30.98;;;;;;;11.47;100.00;101031.59;5058183;28;20206;-72
2022/01/02 08:57:35;;;;;;;33.17;16.55;;;;;;;11.59;100.00;101060.50;5052614;28;20188;-75
2022/01/02 09:00:02;;;;;;;58.92;24.98;;;;;;;11.71;100.00;101060.81;5071437;28;20203;-76
2022/01/02 09:02:29;;;;;;;61.42;27.45;;;;;;;11.77;100.00;101068.81;5061751;28;20195;-74
2022/01/02 09:04:55;;;;;;;22.63;12.43;;;;;;;11.80;100.00;101066.28;5051140;28;20199;-74
2022/01/02 09:07:22;;;;;;;49.20;21.00;;;;;;;11.91;100.00;101070.03;5051414;28;20265;-74
2022/01/02 09:09:49;;;;;;;96.85;35.90;;;;;;;11.95;100.00;101047.59;5051101;28;20200;-72
2022/01/02 09:12:17;;;;;;;139.35;60.40;;;;;;;12.05;100.00;101063.47;5058781;28;20260;-74
2022/01/02 09:14:44;;;;;;;44.58;21.45;;;;;;;11.84;100.00;101016.16;5073152;28;20210;-81
2022/01/02 09:17:12;;;;;;;28.80;14.75;;;;;;;12.22;100.00;101064.75;5074847;28;20202;-74
2022/01/02 09:19:39;;;;;;;31.50;17.48;;;;;;;12.25;100.00;101064.81;5075011;28;20222;-77
2022/01/02 09:22:06;;;;;;;24.25;13.85;;;;;;;12.47;100.00;101062.72;5041187;28;20626;-75
2022/01/02 09:24:33;;;;;;;44.13;22.38;;;;;;;12.47;100.00;101055.78;5034362;28;20215;-74
2022/01/02 09:27:00;;;;;;;33.92;16.88;;;;;;;12.59;100.00;101048.25;5034530;28;20621;-77
2022/01/02 09:29:28;;;;;;;26.00;16.85;;;;;;;12.67;100.00;101053.63;5034126;28;20258;-76
2022/01/02 09:31:55;;;;;;;20.25;11.95;;;;;;;12.46;100.00;101045.34;5035826;28;20204;-77
2022/01/02 09:34:21;;;;;;;19.15;12.85;;;;;;;12.53;100.00;101042.91;5034420;28;20220;-75
2022/01/02 09:36:48;;;;;;;17.15;11.50;;;;;;;12.54;100.00;101023.88;5035896;28;20204;-76
2022/01/02 09:39:15;;;;;;;22.00;13.15;;;;;;;12.60;100.00;101028.31;5035209;28;20698;-76
2022/01/02 09:41:42;;;;;;;18.45;12.52;;;;;;;12.66;100.00;101031.06;5037444;28;20196;-73
2022/01/02 09:44:09;;;;;;;13.20;9.88;;;;;;;12.38;100.00;101040.84;5034122;28;20203;-76
2022/01/02 09:46:41;;;;;;;14.73;11.50;;;;;;;12.48;100.00;101026.34;5046091;28;20276;-76
2022/01/02 09:49:08;;;;;;;16.02;10.75;;;;;;;12.60;100.00;101038.72;5053588;28;20646;-76
2022/01/02 09:51:35;;;;;;;14.63;10.45;;;;;;;12.67;100.00;101035.41;5042605;28;20196;-76
2022/01/02 09:54:02;;;;;;;16.63;11.70;;;;;;;12.69;100.00;101039.81;5054345;28;20227;-78
2022/01/02 09:56:29;;;;;;;17.00;11.45;;;;;;;12.44;100.00;101037.53;5055125;28;20227;-75
2022/01/02 09:58:56;;;;;;;17.65;11.10;;;;;;;12.41;100.00;101033.09;5053126;28;20206;-77
2022/01/02 10:01:24;;;;;;;17.55;11.35;;;;;;;12.28;100.00;100984.28;5033271;28;20223;-79
2022/01/02 10:03:57;;;;;;;20.42;13.13;;;;;;;12.48;100.00;101021.13;5033482;28;20261;-78
2022/01/02 10:06:39;;;;;;;60.75;29.38;;;;;;;12.53;100.00;101018.63;5039184;28;20287;-76
2022/01/02 10:09:05;;;;;;;21.20;13.48;;;;;;;12.69;100.00;101038.94;5052028;28;20257;-73
2022/01/02 10:11:33;;;;;;;17.00;11.35;;;;;;;12.67;100.00;101030.19;5052401;28;20308;-75
2022/01/02 10:14:04;;;;;;;12.95;10.65;;;;;;;12.33;100.00;100972.25;5033035;28;20220;-75
2022/01/02 10:16:33;;;;;;;13.82;11.43;;;;;;;12.39;100.00;100977.59;5033895;28;20196;-76
2022/01/02 10:19:17;;;;;;;14.48;10.02;;;;;;;12.77;100.00;101037.38;5032951;28;20679;-76
2022/01/02 10:21:44;;;;;;;13.93;11.05;;;;;;;12.74;100.00;101032.09;5032092;28;20314;-74
2022/01/02 10:24:13;;;;;;;13.85;10.65;;;;;;;12.77;100.00;101025.22;5032303;28;20204;-76
2022/01/02 10:26:40;;;;;;;13.68;10.63;;;;;;;12.77;100.00;101030.44;5035790;28;20203;-75
2022/01/02 10:29:11;;;;;;;18.55;11.25;;;;;;;12.79;100.00;101033.09;5034198;28;20207;-76
2022/01/02 10:31:39;;;;;;;25.95;14.45;;;;;;;12.62;100.00;101024.03;5073548;28;20277;-74
2022/01/02 10:34:07;;;;;;;18.80;11.48;;;;;;;12.77;100.00;101022.63;5073395;28;20233;-75
2022/01/02 10:36:36;;;;;;;15.30;11.38;;;;;;;12.70;100.00;101012.09;5054253;28;20200;-76
2022/01/02 10:39:07;;;;;;;17.55;12.50;;;;;;;12.87;100.00;101026.31;5053544;28;20203;-74
2022/01/02 10:41:37;;;;;;;17.95;12.73;;;;;;;12.81;100.00;101018.34;5053334;28;20204;-75
2022/01/02 10:44:18;;;;;;;17.73;12.68;;;;;;;12.76;100.00;101020.00;5053096;28;20215;-74
2022/01/02 10:47:11;;;;;;;17.88;12.10;;;;;;;12.61;100.00;100994.53;5073064;28;20198;-75
2022/01/02 10:50:03;;;;;;;13.70;10.85;;;;;;;12.81;100.00;101010.56;5035679;28;20596;-73
2022/01/02 10:52:32;;;;;;;16.67;11.65;;;;;;;12.77;100.00;101006.16;5029382;28;20204;-74
2022/01/02 10:55:00;;;;;;;14.57;10.40;;;;;;;12.67;100.00;101005.06;5032796;28;20294;-76
2022/01/02 10:57:28;;;;;;;15.30;10.85;;;;;;;12.72;100.00;101002.56;5037900;28;20679;-76
2022/01/02 10:59:57;;;;;;;15.10;11.30;;;;;;;12.86;100.00;101004.63;5033438;28;20200;-74
2022/01/02 11:02:26;;;;;;;19.08;12.82;;;;;;;12.92;100.00;101001.25;5044451;28;20690;-73
2022/01/02 11:04:58;;;;;;;20.77;12.18;;;;;;;13.03;100.00;100999.72;5063855;28;20198;-74
2022/01/02 11:07:27;;;;;;;19.67;11.77;;;;;;;13.09;100.00;100994.66;5071074;28;20673;-77
2022/01/02 11:09:56;;;;;;;14.98;11.25;;;;;;;12.90;100.00;100966.50;5065046;28;20206;-73
2022/01/02 11:12:24;;;;;;;16.13;10.93;;;;;;;12.34;100.00;100908.13;5072414;28;20673;-77
2022/01/02 11:14:52;;;;;;;19.25;12.35;;;;;;;12.99;100.00;100984.91;5057306;28;20220;-75